Terminal Aerodrome Forecast
Issued by NWS

Home | Current Version | Previous Version | Text Only | Print | Product List | Glossary On
Versions: 1 2 3 4 5 6 7 8 9 10 11 12
783
FTUS42 KTBW 110529
TAFLAL
TAF
KLAL 110529Z 1106/1206 VRB03KT P6SM SKC
     FM111400 05006KT P6SM FEW250
     FM111800 VRB04KT P6SM FEW250
      AMD NOT SKED TIL 111200=

USA.gov is the U.S. government's official web portal to all federal, state and local government web resources and services.